Bookmark and Share
Track history (hours):
 

Eships Agamid

Last reported at 2014-Apr-20 20:33 UTC. Time now 2014-Apr-21 12:19 UTC.
Position N 47°42' W 003°22'.

Length 128 m; draft 6 m.

Type: Tanker. MMSI: 236355000.

NotesDate/timePositionNaut miles runAvg speedWind from/ knotsBaromVisibWave heightAir tempDewpointWater temp
2014-Apr-20 20:33N 47°42' W 003°22'2 1.7
2014-Apr-20 19:19N 47°44' W 003°21'0 0.0
2014-Apr-20 18:33N 47°44' W 003°21'0 0.0
2014-Apr-20 17:29N 47°44' W 003°21'0 0.0
2014-Apr-20 16:32N 47°44' W 003°21'0 0.0
2014-Apr-20 15:32N 47°44' W 003°21'0 0.0
2014-Apr-20 14:29N 47°44' W 003°21'0 0.0
2014-Apr-20 10:24N 47°44' W 003°21'0 0.0
2014-Apr-20 08:15N 47°44' W 003°21'0 0.0
2014-Apr-20 07:33N 47°44' W 003°21'0 0.0
2014-Apr-20 06:29N 47°44' W 003°21'1 0.1
2014-Apr-20 01:31N 47°43' W 003°22'4 4.3
2014-Apr-20 00:33N 47°40' W 003°25'0 0.0
2014-Apr-19 23:33N 47°40' W 003°25'0 0.0
2014-Apr-19 22:33N 47°40' W 003°25'0 0.0
2014-Apr-19 21:33N 47°40' W 003°25'0 0.0
2014-Apr-19 20:33N 47°40' W 003°25'0 0.0
2014-Apr-19 19:33N 47°40' W 003°25'0 0.1
2014-Apr-19 18:33N 47°40' W 003°25'14 7.1
2014-Apr-19 16:32N 47°28' W 003°37'52 1.5
2014-Apr-18 06:32N 47°08' W 002°27'0 0.0
2014-Apr-18 05:23N 47°08' W 002°26'0 0.0
2014-Apr-17 23:32N 47°08' W 002°27'0 0.0
2014-Apr-17 22:32N 47°08' W 002°27'0 0.0
2014-Apr-17 21:32N 47°08' W 002°27'0 0.0
2014-Apr-17 20:32N 47°08' W 002°27'0 0.0
2014-Apr-17 19:32N 47°08' W 002°27'0 0.0
2014-Apr-17 18:32N 47°08' W 002°27'0 0.0
2014-Apr-17 17:32N 47°08' W 002°26'0 0.0
2014-Apr-17 08:29N 47°08' W 002°27'0 0.0
2014-Apr-17 04:26N 47°08' W 002°27'0 0.1
2014-Apr-17 03:26N 47°08' W 002°26'0 0.0
2014-Apr-17 02:26N 47°08' W 002°26'0 0.0
2014-Apr-17 01:26N 47°08' W 002°26'  
2014-Apr-13 21:32N 47°18' W 002°05'18 0.7
2014-Apr-12 20:33N 47°07' W 002°25'0 0.0
2014-Apr-12 19:33N 47°07' W 002°25'0 0.0
2014-Apr-12 18:30N 47°07' W 002°25'41 2.7
2014-Apr-12 03:34N 46°26' W 002°21'1212.1
2014-Apr-12 02:34N 46°16' W 002°10'1212.1
2014-Apr-12 01:34N 46°06' W 002°00'  

Dump ship's entire track history

sailing weather and tide predictions

Eships Agamid — ZDHS9 — position and weather